createdAt,value
2018-07-06T00:00:52.441Z,37.30
2018-07-06T00:03:32.408Z,37.50
2018-07-06T00:06:12.320Z,37.90
2018-07-06T00:08:52.217Z,38.00
2018-07-06T00:11:32.181Z,37.70
2018-07-06T00:14:11.972Z,38.00
2018-07-06T00:16:51.699Z,38.20
2018-07-06T00:19:31.612Z,38.60
2018-07-06T00:22:11.505Z,38.70
2018-07-06T00:24:51.241Z,38.70
2018-07-06T00:27:31.113Z,38.80
2018-07-06T00:30:11.166Z,39.70
2018-07-06T00:32:51.197Z,38.90
2018-07-06T00:35:31.121Z,38.30
2018-07-06T00:38:11.088Z,39.20
2018-07-06T00:40:51.133Z,39.20
2018-07-06T00:43:31.004Z,39.10
2018-07-06T00:46:11.019Z,39.20
2018-07-06T00:48:50.913Z,39.30
2018-07-06T00:51:30.756Z,39.00
2018-07-06T00:54:10.604Z,38.70
2018-07-06T00:56:50.545Z,38.70
2018-07-06T00:59:30.437Z,39.00
2018-07-06T01:02:10.417Z,38.80
2018-07-06T01:04:50.130Z,38.40
2018-07-06T01:07:29.931Z,38.50
2018-07-06T01:10:09.805Z,38.40
2018-07-06T01:12:55.072Z,38.20
2018-07-06T01:15:35.467Z,37.30
2018-07-06T01:18:16.125Z,37.10
2018-07-06T01:20:56.328Z,36.90
2018-07-06T01:23:36.172Z,36.70
2018-07-06T01:26:16.540Z,36.30
2018-07-06T01:28:56.787Z,36.30
2018-07-06T01:31:36.704Z,36.30
2018-07-06T01:34:16.689Z,36.10
2018-07-06T01:36:56.614Z,36.10
2018-07-06T01:39:36.480Z,36.20
2018-07-06T01:42:16.357Z,35.80
2018-07-06T01:44:56.141Z,36.00
2018-07-06T01:47:35.973Z,35.40
2018-07-06T01:50:15.968Z,35.80
2018-07-06T01:52:55.885Z,35.50
2018-07-06T01:55:35.642Z,35.20
2018-07-06T01:58:15.351Z,34.70
2018-07-06T02:00:55.234Z,33.80
2018-07-06T02:03:35.059Z,32.80
2018-07-06T02:06:15.112Z,32.60
2018-07-06T02:08:54.949Z,32.20
2018-07-06T02:11:34.862Z,31.10
2018-07-06T02:14:14.580Z,30.90
2018-07-06T02:16:54.372Z,30.50
2018-07-06T02:19:34.331Z,31.30
2018-07-06T02:22:14.133Z,30.70
2018-07-06T02:24:53.960Z,30.70
2018-07-06T02:27:33.581Z,30.60
2018-07-06T02:30:13.398Z,31.10
2018-07-06T02:32:53.273Z,31.10
2018-07-06T02:35:33.080Z,31.40
2018-07-06T02:38:12.954Z,31.60
2018-07-06T02:40:52.743Z,31.70
2018-07-06T02:43:32.785Z,31.80
2018-07-06T02:46:12.862Z,32.20
2018-07-06T02:48:52.679Z,32.50
2018-07-06T02:51:32.644Z,32.70
2018-07-06T02:54:12.480Z,32.30
2018-07-06T02:56:52.336Z,32.30
2018-07-06T02:59:32.058Z,32.20
2018-07-06T03:02:11.905Z,32.60
2018-07-06T03:04:51.824Z,31.80
2018-07-06T03:07:31.604Z,31.70
2018-07-06T03:10:11.345Z,31.70
2018-07-06T03:12:51.144Z,31.30
2018-07-06T03:15:31.120Z,30.90
2018-07-06T03:18:10.987Z,31.30
2018-07-06T03:20:50.931Z,31.30
2018-07-06T03:23:30.679Z,31.00
2018-07-06T03:26:10.533Z,30.70
2018-07-06T03:28:50.703Z,30.60
2018-07-06T03:31:30.475Z,30.80
2018-07-06T03:34:10.460Z,31.10
2018-07-06T03:36:50.289Z,30.50
2018-07-06T03:39:29.987Z,30.20
2018-07-06T03:42:09.876Z,30.70
2018-07-06T03:44:49.725Z,30.00
2018-07-06T03:47:29.628Z,30.60
2018-07-06T03:50:09.332Z,30.50
2018-07-06T03:52:49.299Z,30.20
2018-07-06T03:55:29.246Z,30.00
2018-07-06T03:58:09.188Z,29.40
2018-07-06T04:00:49.189Z,29.50
2018-07-06T04:03:29.141Z,29.80
2018-07-06T04:06:09.140Z,29.80
2018-07-06T04:08:48.936Z,30.10
2018-07-06T04:11:28.868Z,30.40
2018-07-06T04:14:08.718Z,29.50
2018-07-06T04:16:48.638Z,30.20
2018-07-06T04:19:28.559Z,30.20
2018-07-06T04:22:08.506Z,30.40
2018-07-06T04:24:48.374Z,30.40
2018-07-06T04:27:28.444Z,30.80
2018-07-06T04:30:08.465Z,31.40
2018-07-06T04:32:48.428Z,31.70
2018-07-06T04:35:28.487Z,31.00
2018-07-06T04:38:08.374Z,31.10
2018-07-06T04:43:21.949Z,31.70
2018-07-06T04:46:01.786Z,31.10
2018-07-06T04:48:41.721Z,30.30
2018-07-06T04:51:21.592Z,30.40
2018-07-06T04:54:01.625Z,30.10
2018-07-06T04:56:41.566Z,30.40
2018-07-06T04:59:21.653Z,30.20
2018-07-06T05:02:01.415Z,29.30
2018-07-06T05:04:41.230Z,28.90
2018-07-06T05:07:20.981Z,28.60
2018-07-06T05:10:00.929Z,28.30
2018-07-06T05:12:40.838Z,27.90
2018-07-06T05:15:20.416Z,27.10
2018-07-06T05:18:00.276Z,27.50
2018-07-06T05:20:40.081Z,27.40
2018-07-06T05:23:20.004Z,27.70
2018-07-06T05:25:59.931Z,26.50
2018-07-06T05:28:39.881Z,25.70
2018-07-06T05:31:19.908Z,25.60
2018-07-06T05:33:59.748Z,26.70
2018-07-06T05:36:39.689Z,25.70
2018-07-06T05:39:19.590Z,25.30
2018-07-06T05:42:00.413Z,24.40
2018-07-06T05:44:40.383Z,23.00
2018-07-06T05:47:20.239Z,21.80
2018-07-06T05:50:00.188Z,20.90
2018-07-06T05:52:40.049Z,20.20
2018-07-06T05:55:19.955Z,19.60
2018-07-06T05:58:00.183Z,19.10
2018-07-06T06:00:40.110Z,18.60
2018-07-06T06:03:20.760Z,18.60
2018-07-06T06:06:00.553Z,18.60
2018-07-06T06:08:28.116Z,18.80
2018-07-06T06:10:56.913Z,18.80
2018-07-06T06:13:25.738Z,18.10
2018-07-06T06:15:55.008Z,18.50
2018-07-06T06:18:23.748Z,18.80
2018-07-06T06:20:52.630Z,18.40
2018-07-06T06:23:21.317Z,18.40
2018-07-06T06:25:49.975Z,18.40
2018-07-06T06:28:18.679Z,18.20
2018-07-06T06:30:47.417Z,18.10
2018-07-06T06:33:16.278Z,16.20
2018-07-06T06:35:45.068Z,16.20
2018-07-06T06:38:13.792Z,17.00
2018-07-06T06:40:42.549Z,17.00
2018-07-06T06:43:11.252Z,16.80
2018-07-06T06:45:39.998Z,17.60
2018-07-06T06:48:08.673Z,17.90
2018-07-06T06:50:37.467Z,18.90
2018-07-06T06:53:06.215Z,19.70
2018-07-06T06:55:35.003Z,20.00
2018-07-06T06:58:03.991Z,20.80
2018-07-06T07:00:32.736Z,21.30
2018-07-06T07:03:01.555Z,22.40
2018-07-06T07:05:30.358Z,22.80
2018-07-06T07:07:59.095Z,24.10
2018-07-06T07:10:27.772Z,23.20
2018-07-06T07:12:56.438Z,24.30
2018-07-06T07:15:25.123Z,24.10
2018-07-06T07:17:53.888Z,24.00
2018-07-06T07:20:22.644Z,24.70
2018-07-06T07:22:51.388Z,24.00
2018-07-06T07:25:20.273Z,23.00
2018-07-06T07:27:49.000Z,22.60
2018-07-06T07:30:17.721Z,21.90
2018-07-06T07:32:46.484Z,23.00
2018-07-06T07:35:15.154Z,23.60
2018-07-06T07:37:43.948Z,22.30
2018-07-06T07:40:12.696Z,22.10
2018-07-06T07:42:41.720Z,22.60
2018-07-06T07:45:10.380Z,22.50
2018-07-06T07:47:39.108Z,23.00
2018-07-06T07:50:07.837Z,23.50
2018-07-06T07:52:47.872Z,23.10
2018-07-06T07:55:16.580Z,24.00
2018-07-06T07:57:45.276Z,24.60
2018-07-06T08:00:13.957Z,24.50
2018-07-06T08:02:42.700Z,24.30
2018-07-06T08:05:11.401Z,24.60
2018-07-06T08:07:40.212Z,24.80
2018-07-06T08:10:08.952Z,24.80
2018-07-06T08:12:37.692Z,23.90
2018-07-06T08:15:06.724Z,24.10
2018-07-06T08:17:35.408Z,23.90
2018-07-06T08:20:04.101Z,23.40
2018-07-06T08:22:32.764Z,24.90
2018-07-06T08:25:01.453Z,25.30
2018-07-06T08:27:30.152Z,24.00
2018-07-06T08:29:58.861Z,24.10
2018-07-06T08:32:27.584Z,24.20
2018-07-06T08:35:07.479Z,23.50
2018-07-06T08:37:51.457Z,22.40
2018-07-06T08:40:21.204Z,21.40
2018-07-06T08:42:51.280Z,21.40
2018-07-06T08:45:19.953Z,19.90
2018-07-06T08:47:49.080Z,20.80
2018-07-06T08:50:17.782Z,20.90
2018-07-06T08:52:47.786Z,20.30
2018-07-06T08:55:16.705Z,19.60
2018-07-06T08:57:46.289Z,18.20
2018-07-06T09:00:15.067Z,18.60
2018-07-06T09:02:43.744Z,17.20
2018-07-06T09:05:13.130Z,16.60
2018-07-06T09:07:41.886Z,17.00
2018-07-06T09:10:10.516Z,15.00
2018-07-06T09:12:39.718Z,14.50
2018-07-06T09:15:09.055Z,14.80
2018-07-06T09:17:37.766Z,14.90
2018-07-06T09:20:06.575Z,16.00
2018-07-06T09:22:35.166Z,16.70
2018-07-06T09:25:05.686Z,16.20
2018-07-06T09:27:35.700Z,15.70
2018-07-06T09:30:04.830Z,15.50
2018-07-06T09:32:33.516Z,14.90
2018-07-06T09:35:02.226Z,13.30
2018-07-06T09:37:30.934Z,12.80
2018-07-06T09:39:59.596Z,13.70
2018-07-06T09:42:28.367Z,13.90
2018-07-06T09:44:57.062Z,13.60
2018-07-06T09:47:25.850Z,11.50
2018-07-06T09:49:54.541Z,10.30
2018-07-06T09:52:23.493Z,10.00
2018-07-06T09:54:52.040Z,9.10
2018-07-06T09:57:20.745Z,8.40
2018-07-06T09:59:52.396Z,10.20
2018-07-06T10:02:21.100Z,9.80
2018-07-06T10:04:49.832Z,9.50
2018-07-06T10:07:18.579Z,10.00
2018-07-06T10:09:47.291Z,7.50
2018-07-06T10:12:15.923Z,6.00
2018-07-06T10:14:44.609Z,5.40
2018-07-06T10:17:13.320Z,6.30
2018-07-06T10:19:42.032Z,7.40
2018-07-06T10:22:10.669Z,7.10
2018-07-06T10:24:39.383Z,8.20
2018-07-06T10:27:08.037Z,8.20
2018-07-06T10:29:44.573Z,8.70
2018-07-06T10:32:18.260Z,8.40
2018-07-06T10:34:47.169Z,8.10
2018-07-06T10:37:16.589Z,8.90
2018-07-06T10:39:45.387Z,8.10
2018-07-06T10:42:14.014Z,7.60
2018-07-06T10:44:42.706Z,6.30
2018-07-06T10:47:11.839Z,6.70
2018-07-06T10:49:40.521Z,7.80
2018-07-06T10:52:09.933Z,7.20
2018-07-06T10:54:39.646Z,7.60
2018-07-06T10:57:08.433Z,7.40
2018-07-06T10:59:37.223Z,6.50
2018-07-06T11:02:06.085Z,6.00
2018-07-06T11:04:34.993Z,6.70
2018-07-06T11:07:03.726Z,7.10
2018-07-06T11:09:32.435Z,7.40
2018-07-06T11:12:01.177Z,8.00
2018-07-06T11:14:29.918Z,8.60
2018-07-06T11:16:58.704Z,9.10
2018-07-06T11:19:27.839Z,8.40
2018-07-06T11:21:56.914Z,7.50
2018-07-06T11:24:25.888Z,7.00
2018-07-06T11:26:54.589Z,5.80
2018-07-06T11:29:23.525Z,7.20
2018-07-06T11:31:52.493Z,7.80
2018-07-06T11:34:21.181Z,7.80
2018-07-06T11:36:49.897Z,7.00
2018-07-06T11:39:18.611Z,7.40
2018-07-06T11:41:47.885Z,7.60
2018-07-06T11:44:16.561Z,8.20
2018-07-06T11:46:45.282Z,8.60
2018-07-06T11:49:13.985Z,8.80
2018-07-06T11:51:42.676Z,9.10
2018-07-06T11:54:11.424Z,7.70
2018-07-06T11:56:40.187Z,7.80
2018-07-06T11:59:08.888Z,9.20
2018-07-06T12:01:37.575Z,8.00
2018-07-06T12:04:06.423Z,8.20
2018-07-06T12:06:35.113Z,8.50
2018-07-06T12:09:04.878Z,8.50
2018-07-06T12:11:33.740Z,9.50
2018-07-06T12:14:02.402Z,9.30
2018-07-06T12:16:31.066Z,10.00
2018-07-06T12:18:59.747Z,10.30
2018-07-06T12:21:28.537Z,9.60
2018-07-06T12:23:57.218Z,9.40
2018-07-06T12:26:25.888Z,9.80
2018-07-06T12:28:54.646Z,9.80
2018-07-06T12:31:23.348Z,9.30
2018-07-06T12:33:52.105Z,10.20
2018-07-06T12:36:20.784Z,9.70
2018-07-06T12:38:49.549Z,10.60
2018-07-06T12:41:18.844Z,9.50
2018-07-06T12:43:48.381Z,9.40
2018-07-06T12:46:17.237Z,9.60
2018-07-06T12:48:46.108Z,9.50
2018-07-06T12:51:14.804Z,10.00
2018-07-06T12:53:43.581Z,10.50
2018-07-06T12:56:12.720Z,10.60
2018-07-06T12:58:41.504Z,11.00
2018-07-06T13:01:10.084Z,11.10
2018-07-06T13:03:38.770Z,11.90
2018-07-06T13:06:07.558Z,11.80
2018-07-06T13:08:36.294Z,12.30
2018-07-06T13:11:04.994Z,11.90
2018-07-06T13:13:33.709Z,12.20
2018-07-06T13:16:02.523Z,13.10
2018-07-06T13:18:31.234Z,12.40
2018-07-06T13:20:59.974Z,12.20
2018-07-06T13:23:29.013Z,12.40
2018-07-06T13:25:58.085Z,12.30
2018-07-06T13:28:26.826Z,13.40
2018-07-06T13:30:55.504Z,13.00
2018-07-06T13:33:24.161Z,13.20
2018-07-06T13:35:52.856Z,14.30
2018-07-06T13:38:22.268Z,14.20
2018-07-06T13:40:50.958Z,13.70
2018-07-06T13:43:19.647Z,14.20
2018-07-06T13:45:48.369Z,14.70
2018-07-06T13:48:17.065Z,14.30
2018-07-06T13:50:45.865Z,15.30
2018-07-06T13:53:14.547Z,15.10
2018-07-06T13:55:43.220Z,15.00
2018-07-06T13:58:11.893Z,15.40
2018-07-06T14:00:40.642Z,15.30
2018-07-06T14:03:09.328Z,16.00
2018-07-06T14:05:38.071Z,15.70
2018-07-06T14:08:06.740Z,15.10
2018-07-06T14:10:35.434Z,15.00
2018-07-06T14:13:04.136Z,15.50
2018-07-06T14:15:32.924Z,16.00
2018-07-06T14:18:01.608Z,15.70
2018-07-06T14:20:30.342Z,16.30
2018-07-06T14:22:59.115Z,16.00
2018-07-06T14:25:27.800Z,16.00
2018-07-06T14:27:56.527Z,15.90
2018-07-06T14:30:25.224Z,15.70
2018-07-06T14:32:53.957Z,15.90
2018-07-06T14:35:22.820Z,15.50
2018-07-06T14:37:51.541Z,15.20
2018-07-06T14:40:20.414Z,15.60
2018-07-06T14:42:49.119Z,15.50
2018-07-06T14:45:17.875Z,15.50
2018-07-06T14:47:46.616Z,15.80
2018-07-06T14:50:15.337Z,16.60
2018-07-06T14:52:44.090Z,17.00
2018-07-06T14:55:12.771Z,17.00
2018-07-06T14:57:41.505Z,16.90
2018-07-06T15:00:10.180Z,17.60
2018-07-06T15:02:38.913Z,17.00
2018-07-06T15:05:07.597Z,16.60
2018-07-06T15:07:36.320Z,16.90
2018-07-06T15:10:05.014Z,17.50
2018-07-06T15:12:33.722Z,17.50
2018-07-06T15:15:02.441Z,17.50
2018-07-06T15:17:31.128Z,17.70
2018-07-06T15:19:59.941Z,17.50
2018-07-06T15:22:28.599Z,16.90
2018-07-06T15:24:57.385Z,17.50
2018-07-06T15:27:26.090Z,18.00
2018-07-06T15:29:54.769Z,17.70
2018-07-06T15:32:23.441Z,18.00
2018-07-06T15:34:52.145Z,18.00
2018-07-06T15:37:20.870Z,18.10
2018-07-06T15:39:49.774Z,18.40
2018-07-06T15:42:18.514Z,18.50
2018-07-06T15:44:47.261Z,18.20
2018-07-06T15:47:15.980Z,18.20
2018-07-06T15:49:44.803Z,18.60
2018-07-06T15:52:13.492Z,18.20
2018-07-06T15:54:42.239Z,18.00
2018-07-06T15:57:10.990Z,18.20
2018-07-06T15:59:39.929Z,18.30
2018-07-06T16:02:08.724Z,17.80
2018-07-06T16:04:37.635Z,18.00
2018-07-06T16:07:06.318Z,17.70
2018-07-06T16:09:34.999Z,18.20
2018-07-06T16:12:03.789Z,17.80
2018-07-06T16:14:32.473Z,17.00
2018-07-06T16:17:01.166Z,16.90
2018-07-06T16:19:29.879Z,16.40
2018-07-06T16:21:58.612Z,16.40
2018-07-06T16:24:27.323Z,16.60
2018-07-06T16:26:55.988Z,16.40
2018-07-06T16:29:24.841Z,16.60
2018-07-06T16:31:53.845Z,16.60
2018-07-06T16:34:22.616Z,16.70
2018-07-06T16:36:51.365Z,16.70
2018-07-06T16:39:20.052Z,17.00
2018-07-06T16:41:49.117Z,17.20
2018-07-06T16:44:18.097Z,16.90
2018-07-06T16:46:46.950Z,17.00
2018-07-06T16:49:16.175Z,17.10
2018-07-06T16:51:45.581Z,17.00
2018-07-06T16:54:14.892Z,16.60
2018-07-06T16:56:44.078Z,16.70
2018-07-06T16:59:13.970Z,16.80
2018-07-06T17:01:45.220Z,16.70
2018-07-06T17:04:14.627Z,17.00
2018-07-06T17:06:43.600Z,16.80
2018-07-06T17:09:13.840Z,16.90
2018-07-06T17:11:45.840Z,17.40
2018-07-06T17:14:14.945Z,17.30
2018-07-06T17:16:44.766Z,16.60
2018-07-06T17:19:15.087Z,16.80
2018-07-06T17:21:44.046Z,17.10
2018-07-06T17:24:13.146Z,17.00
2018-07-06T17:26:42.593Z,17.30
2018-07-06T17:29:12.393Z,17.20
2018-07-06T17:31:41.446Z,16.80
2018-07-06T17:34:10.917Z,17.50
2018-07-06T17:36:39.985Z,17.20
2018-07-06T17:39:10.167Z,16.90
2018-07-06T17:41:46.311Z,17.00
2018-07-06T17:44:19.771Z,17.30
2018-07-06T17:46:49.867Z,17.50
2018-07-06T17:49:18.640Z,17.50
2018-07-06T17:51:47.500Z,17.00
2018-07-06T17:54:16.281Z,17.30
2018-07-06T17:56:50.709Z,17.40
2018-07-06T17:59:21.963Z,17.30
2018-07-06T18:01:55.057Z,17.20
2018-07-06T18:04:24.486Z,17.20
2018-07-06T18:06:53.476Z,17.10
2018-07-06T18:09:22.677Z,17.20
2018-07-06T18:11:51.474Z,17.10
2018-07-06T18:14:20.257Z,16.60
2018-07-06T18:16:49.638Z,16.50
2018-07-06T18:19:18.464Z,16.80
2018-07-06T18:21:47.405Z,17.10
2018-07-06T18:24:16.461Z,16.80
2018-07-06T18:26:45.290Z,16.70
2018-07-06T18:29:14.109Z,16.80
2018-07-06T18:31:42.961Z,16.70
2018-07-06T18:34:11.791Z,16.80
2018-07-06T18:36:40.719Z,16.40
2018-07-06T18:39:09.527Z,17.00
2018-07-06T18:41:38.381Z,15.70
2018-07-06T18:44:07.249Z,15.70
2018-07-06T18:46:35.974Z,14.90
2018-07-06T18:49:04.842Z,15.70
2018-07-06T18:51:33.580Z,15.60
2018-07-06T18:54:02.666Z,15.40
2018-07-06T18:56:31.527Z,15.40
2018-07-06T18:59:00.358Z,15.20
2018-07-06T19:01:29.309Z,15.60
2018-07-06T19:03:58.118Z,16.20
2018-07-06T19:08:55.314Z,16.20
2018-07-06T19:11:24.072Z,16.40
2018-07-06T19:13:53.081Z,17.50
2018-07-06T19:16:21.939Z,17.70
2018-07-06T19:18:51.502Z,17.50
2018-07-06T19:21:20.478Z,17.40
2018-07-06T19:23:49.963Z,18.00
2018-07-06T19:26:18.661Z,18.70
2018-07-06T19:28:47.537Z,18.10
2018-07-06T19:31:17.002Z,18.60
2018-07-06T19:33:46.168Z,19.20
2018-07-06T19:36:14.913Z,19.70
2018-07-06T19:38:43.778Z,19.70
2018-07-06T19:41:13.007Z,19.80
2018-07-06T19:43:41.888Z,20.00
2018-07-06T19:46:10.654Z,20.10
2018-07-06T19:48:39.392Z,20.50
2018-07-06T19:51:08.256Z,20.70
2018-07-06T19:53:37.308Z,21.20
2018-07-06T19:56:06.283Z,21.30
2018-07-06T19:58:35.397Z,21.90
2018-07-06T20:01:04.145Z,22.00
2018-07-06T20:03:33.054Z,22.70
2018-07-06T20:06:01.805Z,22.80
2018-07-06T20:08:30.884Z,23.50
2018-07-06T20:11:00.693Z,23.90
2018-07-06T20:13:29.417Z,23.90
2018-07-06T20:15:58.148Z,23.30
2018-07-06T20:18:26.874Z,22.00
2018-07-06T20:20:55.745Z,22.40
2018-07-06T20:23:24.913Z,22.30
2018-07-06T20:25:54.313Z,22.10
2018-07-06T20:28:23.029Z,22.20
2018-07-06T20:30:51.849Z,22.60
2018-07-06T20:33:20.569Z,23.30
2018-07-06T20:35:49.661Z,22.80
2018-07-06T20:38:18.356Z,23.00
2018-07-06T20:40:47.048Z,23.80
2018-07-06T20:43:15.852Z,23.40
2018-07-06T20:45:44.610Z,23.70
2018-07-06T20:48:13.322Z,24.10
2018-07-06T20:50:42.311Z,23.60
2018-07-06T20:53:10.980Z,23.70
2018-07-06T20:55:39.653Z,23.80
2018-07-06T20:58:08.440Z,24.30
2018-07-06T21:00:37.167Z,23.80
2018-07-06T21:03:06.012Z,24.00
2018-07-06T21:05:34.721Z,23.90
2018-07-06T21:08:03.518Z,24.50
2018-07-06T21:10:32.270Z,24.90
2018-07-06T21:13:01.002Z,24.30
2018-07-06T21:15:29.725Z,24.40
2018-07-06T21:17:58.472Z,24.60
2018-07-06T21:20:27.508Z,24.70
2018-07-06T21:22:56.954Z,25.10
2018-07-06T21:25:25.808Z,25.20
2018-07-06T21:27:55.485Z,24.80
2018-07-06T21:30:24.281Z,25.00
2018-07-06T21:32:53.003Z,25.60
2018-07-06T21:35:21.721Z,25.60
2018-07-06T21:37:50.412Z,25.80
2018-07-06T21:40:19.142Z,26.40
2018-07-06T21:42:47.842Z,26.10
2018-07-06T21:45:16.776Z,26.60
2018-07-06T21:47:45.440Z,26.50
2018-07-06T21:50:14.181Z,26.40
2018-07-06T21:55:11.196Z,26.30
2018-07-06T21:57:39.902Z,26.40
2018-07-06T22:00:08.613Z,26.70
2018-07-06T22:02:37.389Z,26.80
2018-07-06T22:05:06.157Z,27.10
2018-07-06T22:07:34.933Z,27.20
2018-07-06T22:10:03.676Z,27.70
2018-07-06T22:12:32.400Z,28.10
2018-07-06T22:15:01.086Z,28.10
2018-07-06T22:17:29.804Z,28.20
2018-07-06T22:19:58.584Z,28.10
2018-07-06T22:22:27.352Z,28.00
2018-07-06T22:24:56.088Z,28.20
2018-07-06T22:27:24.786Z,28.10
2018-07-06T22:29:53.546Z,28.30
2018-07-06T22:32:22.267Z,27.80
2018-07-06T22:34:51.033Z,28.00
2018-07-06T22:37:19.751Z,28.10
2018-07-06T22:39:48.431Z,27.90
2018-07-06T22:42:17.148Z,28.30
2018-07-06T22:44:45.834Z,28.40
2018-07-06T22:47:14.889Z,28.50
2018-07-06T22:49:43.553Z,28.50
2018-07-06T22:52:12.247Z,28.70
2018-07-06T22:54:41.032Z,29.00
2018-07-06T22:57:09.752Z,28.90
2018-07-06T22:59:38.485Z,28.40
2018-07-06T23:02:07.727Z,28.10
2018-07-06T23:04:36.415Z,28.60
2018-07-06T23:07:05.389Z,28.30
2018-07-06T23:09:34.097Z,28.00
2018-07-06T23:12:02.825Z,28.10
2018-07-06T23:14:31.504Z,27.70
2018-07-06T23:17:00.285Z,27.50
2018-07-06T23:19:29.042Z,26.70
2018-07-06T23:21:57.701Z,26.40
2018-07-06T23:24:26.490Z,25.70
2018-07-06T23:26:55.202Z,25.20
2018-07-06T23:29:23.890Z,25.00
2018-07-06T23:34:21.018Z,23.70
2018-07-06T23:36:49.787Z,23.90
2018-07-06T23:39:18.619Z,23.40
2018-07-06T23:41:47.295Z,22.70
2018-07-06T23:44:16.001Z,22.20
2018-07-06T23:46:44.747Z,21.10
2018-07-06T23:49:13.460Z,21.00
2018-07-06T23:51:42.194Z,20.00
2018-07-06T23:54:10.904Z,20.70
2018-07-06T23:56:39.640Z,20.20
2018-07-06T23:59:08.306Z,20.20
